Time;durP1;ratioP1;P1;durP2;ratioP2;P2;SDS_P1;SDS_P2;PMS_P1;PMS_P2;Temp;Humidity;BMP_temperature;BMP_pressure;BME280_temperature;BME280_humidity;BME280_pressure;Samples;Min_cycle;Max_cycle;Signal;HPM_P1;HPM_P2
2022/12/14 00:01:45;;;;;;;40.70;26.48;;;-3.10;99.90;;;;;;4926313;29;20087;-82
2022/12/14 00:04:11;;;;;;;40.05;26.08;;;-3.20;99.90;;;;;;4919795;29;20047;-82
2022/12/14 00:06:44;;;;;;;41.58;25.85;;;-3.10;99.90;;;;;;4926341;29;20050;-82
2022/12/14 00:10:28;;;;;;;;;;;;;;;;;;;;;
2022/12/14 00:16:51;;;;;;;42.25;26.17;;;-3.30;99.90;;;;;;4818090;29;20060;-82
2022/12/14 00:19:17;;;;;;;40.00;26.30;;;-2.60;99.90;;;;;;4837696;29;20552;-82
2022/12/14 00:22:23;;;;;;;34.33;23.92;;;-3.20;99.90;;;;;;4918643;29;20047;-82
2022/12/14 00:25:30;;;;;;;40.05;25.10;;;-3.70;99.90;;;;;;4958438;28;20051;-82
2022/12/14 00:27:55;;;;;;;40.47;24.70;;;-3.20;99.90;;;;;;4928666;29;20051;-82
2022/12/14 00:30:26;;;;;;;35.42;23.58;;;-3.30;99.90;;;;;;4928890;29;20186;-82
2022/12/14 00:33:00;;;;;;;37.97;23.98;;;-2.70;99.90;;;;;;4938004;29;20889;-82
2022/12/14 00:35:26;;;;;;;35.28;23.35;;;-3.30;99.90;;;;;;4944857;29;20551;-82
2022/12/14 00:37:54;;;;;;;33.78;23.13;;;-3.30;99.90;;;;;;4940299;29;20055;-82
2022/12/14 00:40:20;;;;;;;35.22;23.50;;;-3.20;99.90;;;;;;4928520;29;20095;-82
2022/12/14 00:42:50;;;;;;;34.72;23.85;;;-3.30;99.90;;;;;;4933347;29;20032;-82
2022/12/14 00:45:19;;;;;;;40.40;23.85;;;-2.20;99.90;;;;;;4921121;29;20188;-82
2022/12/14 00:47:44;;;;;;;36.63;24.15;;;-3.40;99.90;;;;;;4926294;29;20043;-82
2022/12/14 00:50:10;;;;;;;41.30;24.70;;;-3.40;99.90;;;;;;4929643;29;20046;-82
2022/12/14 00:52:38;;;;;;;41.75;24.67;;;-3.40;99.90;;;;;;4920220;29;20047;-82
2022/12/14 00:55:04;;;;;;;37.50;24.75;;;-2.80;99.90;;;;;;4937516;29;20043;-82
2022/12/14 00:57:33;;;;;;;38.55;24.52;;;-3.50;99.90;;;;;;4931734;29;20086;-82
2022/12/14 01:00:07;;;;;;;39.38;25.15;;;-3.50;99.90;;;;;;4919899;29;20050;-82
2022/12/14 01:02:32;;;;;;;37.85;23.65;;;-3.50;99.90;;;;;;4927836;29;20494;-82
2022/12/14 01:13:02;;;;;;;37.67;23.65;;;-3.70;99.90;;;;;;4941927;29;20188;-83
2022/12/14 01:16:06;;;;;;;38.65;22.25;;;-3.60;99.90;;;;;;4907842;29;20063;-82
2022/12/14 01:19:50;;;;;;;;;;;;;;;;;;;;;
2022/12/14 01:22:58;;;;;;;38.72;22.83;;;-3.80;99.90;;;;;;4876099;29;20056;-82
2022/12/14 01:26:23;;;;;;;36.60;23.05;;;-3.10;99.90;;;;;;4893057;29;20052;-82
2022/12/14 01:29:04;;;;;;;34.58;21.55;;;-4.70;99.90;;;;;;4858075;29;20041;-82
2022/12/14 01:31:45;;;;;;;35.08;23.15;;;-3.90;99.90;;;;;;4917956;29;20043;-83
2022/12/14 01:34:24;;;;;;;;;;;;;;;;;;;;;
2022/12/14 01:45:22;;;;;;;;;;;;;;;;;;;;;
2022/12/14 01:48:30;;;;;;;40.42;22.98;;;-3.90;99.90;;;;;;4890763;29;20135;-82
2022/12/14 01:51:26;;;;;;;36.47;21.50;;;-4.00;99.90;;;;;;4914169;29;20063;-82
2022/12/14 01:54:00;;;;;;;32.83;21.20;;;-4.00;99.90;;;;;;4938657;29;20311;-82
2022/12/14 01:57:09;;;;;;;33.30;21.33;;;-3.60;99.90;;;;;;4924516;28;20047;-82
2022/12/14 01:59:48;;;;;;;33.80;21.92;;;-4.60;99.90;;;;;;4927722;29;20070;-82
2022/12/14 02:02:20;;;;;;;35.80;22.65;;;-4.30;99.90;;;;;;4923170;29;20044;-82
2022/12/14 02:05:02;;;;;;;31.73;20.70;;;-2.90;99.90;;;;;;4918713;29;20043;-82
2022/12/14 02:07:38;;;;;;;34.42;21.25;;;-3.10;99.90;;;;;;4923072;29;20055;-82
2022/12/14 02:11:12;;;;;;;37.53;22.92;;;-4.00;99.90;;;;;;4925202;29;20044;-81
2022/12/14 02:14:41;;;;;;;;;;;;;;;;;;;;;
2022/12/14 02:27:59;;;;;;;40.20;23.80;;;-4.30;99.90;;;;;;4937950;29;20166;-82
2022/12/14 02:31:00;;;;;;;41.13;23.80;;;-4.30;99.90;;;;;;4925937;29;20040;-82
2022/12/14 02:34:10;;;;;;;;;;;;;;;;;;;;;
2022/12/14 02:37:14;;;;;;;;;;;;;;;;;;;;;
2022/12/14 02:40:26;;;;;;;42.67;24.02;;;-3.50;99.90;;;;;;4940791;29;20450;-82
2022/12/14 02:43:52;;;;;;;39.67;23.80;;;-4.40;99.90;;;;;;4952107;28;20099;-82
2022/12/14 02:46:49;;;;;;;37.10;21.25;;;-4.80;99.90;;;;;;4903279;29;20069;-82
2022/12/14 02:49:52;;;;;;;39.00;22.92;;;-4.50;99.90;;;;;;4947994;23;20056;-82
2022/12/14 02:56:58;;;;;;;37.05;23.27;;;-4.60;99.90;;;;;;4823821;29;20098;-82
2022/12/14 03:00:04;;;;;;;37.95;23.35;;;-4.50;99.90;;;;;;4823423;29;20059;-82
2022/12/14 03:07:43;;;;;;;;;;;;;;;;;;;;;
2022/12/14 03:14:36;;;;;;;41.67;22.83;;;-3.50;99.90;;;;;;4892306;29;20535;-82
2022/12/14 03:17:16;;;;;;;42.65;23.10;;;-5.50;99.90;;;;;;4919955;29;20052;-82
2022/12/14 03:20:11;;;;;;;41.22;25.13;;;-4.60;99.90;;;;;;4922741;29;20044;-82
2022/12/14 03:23:06;;;;;;;43.05;23.45;;;-4.70;99.90;;;;;;4921233;29;20092;-82
2022/12/14 03:26:20;;;;;;;38.75;23.38;;;-4.70;99.90;;;;;;4900995;29;20459;-82
2022/12/14 03:33:10;;;;;;;35.63;20.27;;;-4.60;99.90;;;;;;4935873;29;20055;-81
2022/12/14 03:40:04;;;;;;;39.00;22.23;;;-4.60;99.90;;;;;;4914226;29;20755;-82
2022/12/14 03:43:48;;;;;;;41.92;21.88;;;-4.60;99.90;;;;;;4904345;29;20072;-82
2022/12/14 03:46:33;;;;;;;39.03;22.27;;;-3.70;99.90;;;;;;4826350;29;20632;-81
2022/12/14 03:49:21;;;;;;;36.50;21.27;;;-3.50;99.90;;;;;;4815144;29;20038;-81
2022/12/14 03:52:08;;;;;;;38.05;22.08;;;-4.70;99.90;;;;;;4909662;29;20724;-81
2022/12/14 03:54:43;;;;;;;35.13;19.88;;;-4.70;99.90;;;;;;4916485;29;20044;-82
2022/12/14 03:57:44;;;;;;;34.47;19.73;;;-4.70;99.90;;;;;;4914943;29;20037;-81
2022/12/14 04:00:31;;;;;;;35.40;20.05;;;-4.80;99.90;;;;;;4922611;29;20044;-81
2022/12/14 04:03:53;;;;;;;35.95;20.45;;;-5.90;99.90;;;;;;4907315;29;20043;-81
2022/12/14 04:06:32;;;;;;;33.75;19.23;;;-4.80;99.90;;;;;;4901148;29;20055;-81
2022/12/14 04:09:36;;;;;;;37.20;19.63;;;-4.50;99.90;;;;;;4921311;29;20052;-82
2022/12/14 04:19:23;;;;;;;35.83;19.92;;;-5.00;99.90;;;;;;4920290;29;20053;-81
2022/12/14 04:22:09;;;;;;;31.45;17.77;;;-5.00;99.90;;;;;;4834221;29;20243;-81
2022/12/14 04:27:47;;;;;;;31.03;18.93;;;-5.10;99.90;;;;;;4916824;29;20059;-82
2022/12/14 04:30:16;;;;;;;32.15;18.85;;;-5.10;99.90;;;;;;4920830;29;20331;-82
2022/12/14 04:35:57;;;;;;;30.75;18.00;;;-5.10;99.90;;;;;;4921490;29;20087;-82
2022/12/14 04:38:31;;;;;;;33.55;18.45;;;-5.30;99.90;;;;;;4903446;29;20040;-81
2022/12/14 04:41:04;;;;;;;32.55;19.08;;;-5.00;99.90;;;;;;4917297;29;20044;-82
2022/12/14 04:43:37;;;;;;;30.20;17.85;;;-5.40;99.90;;;;;;4902692;29;20055;-81
2022/12/14 04:46:09;;;;;;;27.65;16.75;;;-5.40;99.90;;;;;;4932494;29;20049;-82
2022/12/14 04:48:57;;;;;;;28.50;16.75;;;-5.40;99.90;;;;;;4921342;29;20051;-81
2022/12/14 04:51:32;;;;;;;30.85;17.23;;;-5.40;99.90;;;;;;4903560;29;20047;-81
2022/12/14 04:54:10;;;;;;;27.27;15.88;;;-5.50;99.90;;;;;;4902621;29;20043;-81
2022/12/14 04:56:45;;;;;;;29.77;17.60;;;-5.50;99.90;;;;;;4900979;29;20108;-81
2022/12/14 04:59:11;;;;;;;30.63;17.73;;;-5.50;99.90;;;;;;4934776;29;20036;-81
2022/12/14 05:02:06;;;;;;;32.00;18.13;;;-5.50;99.90;;;;;;4897078;29;20146;-84
2022/12/14 05:05:02;;;;;;;29.47;17.10;;;-5.60;99.90;;;;;;4910587;29;20104;-84
2022/12/14 05:08:01;;;;;;;31.52;16.88;;;-5.50;99.90;;;;;;4913345;29;20411;-84
2022/12/14 05:10:31;;;;;;;26.50;16.75;;;-5.60;99.90;;;;;;4927802;29;20056;-82
2022/12/14 05:13:26;;;;;;;31.17;19.17;;;-5.50;99.90;;;;;;4916110;29;20044;-82
2022/12/14 05:15:54;;;;;;;32.50;19.42;;;-5.50;99.90;;;;;;4891011;29;20091;-82
2022/12/14 05:18:20;;;;;;;28.48;17.50;;;-5.60;99.90;;;;;;4913383;29;20048;-83
2022/12/14 05:20:51;;;;;;;29.80;17.55;;;-5.60;99.90;;;;;;4915910;29;20047;-84
2022/12/14 05:23:17;;;;;;;34.63;20.17;;;-5.60;99.90;;;;;;4902201;29;20038;-83
2022/12/14 05:25:43;;;;;;;29.88;18.35;;;-5.60;99.90;;;;;;4903214;29;20127;-83
2022/12/14 05:28:10;;;;;;;31.63;17.98;;;-5.60;99.90;;;;;;4917900;29;20048;-82
2022/12/14 05:30:35;;;;;;;26.88;16.48;;;-5.60;99.90;;;;;;4902306;29;20058;-83
2022/12/14 05:33:01;;;;;;;30.80;18.70;;;-5.70;99.90;;;;;;4915384;29;20131;-85
2022/12/14 05:35:26;;;;;;;34.35;17.30;;;-5.70;99.90;;;;;;4895685;29;20079;-84
2022/12/14 05:37:52;;;;;;;29.48;16.33;;;-5.70;99.90;;;;;;4915103;29;20048;-83
2022/12/14 05:40:18;;;;;;;29.23;17.45;;;-5.70;99.90;;;;;;4902499;29;20817;-81
2022/12/14 05:42:43;;;;;;;34.95;18.60;;;-5.70;99.90;;;;;;4902960;29;20032;-83
2022/12/14 05:45:11;;;;;;;28.65;17.80;;;-5.80;99.90;;;;;;4900874;29;20164;-82
2022/12/14 05:47:37;;;;;;;27.88;16.08;;;-5.80;99.90;;;;;;4903328;29;20044;-82
2022/12/14 05:50:04;;;;;;;36.83;18.38;;;-5.80;99.90;;;;;;4905065;29;20039;-82
2022/12/14 05:52:29;;;;;;;35.15;18.50;;;-5.70;99.90;;;;;;4904966;29;20127;-82
2022/12/14 05:54:55;;;;;;;36.25;18.50;;;-5.70;99.90;;;;;;4902644;29;20077;-82
2022/12/14 05:57:20;;;;;;;33.03;18.23;;;-5.70;99.90;;;;;;4919998;29;20060;-82
2022/12/14 05:59:46;;;;;;;27.65;16.52;;;-5.70;99.90;;;;;;4906599;29;20134;-82
2022/12/14 06:02:18;;;;;;;34.22;17.52;;;-5.10;99.90;;;;;;4907274;29;20103;-85
2022/12/14 06:05:20;;;;;;;30.10;17.85;;;-5.70;99.90;;;;;;4901109;29;20056;-82
2022/12/14 06:07:55;;;;;;;32.92;17.38;;;-6.70;99.90;;;;;;4900071;29;20060;-82
2022/12/14 06:10:48;;;;;;;32.00;18.13;;;-5.70;99.90;;;;;;4929875;29;20064;-81
2022/12/14 06:14:06;;;;;;;30.13;17.90;;;-6.90;99.90;;;;;;4898510;29;20044;-82
2022/12/14 06:16:42;;;;;;;31.17;16.40;;;-5.30;99.90;;;;;;4908747;29;20048;-81
2022/12/14 06:19:08;;;;;;;32.75;17.73;;;-5.70;99.90;;;;;;4899568;29;20036;-83
2022/12/14 06:21:36;;;;;;;33.17;17.15;;;-5.70;99.90;;;;;;4912529;29;20160;-81
2022/12/14 06:24:03;;;;;;;31.85;17.90;;;-5.70;99.90;;;;;;4903127;29;20048;-83
2022/12/14 06:26:31;;;;;;;33.50;18.00;;;-5.80;99.90;;;;;;4933012;29;20048;-83
2022/12/14 06:28:57;;;;;;;34.00;18.58;;;-5.80;99.90;;;;;;4916387;29;20043;-83
2022/12/14 06:31:28;;;;;;;33.58;17.75;;;-5.80;99.90;;;;;;4901741;29;20044;-83
2022/12/14 06:33:55;;;;;;;37.72;18.17;;;-5.80;99.90;;;;;;4934622;29;20062;-83
2022/12/14 06:36:27;;;;;;;34.45;18.17;;;-5.80;99.90;;;;;;4903221;29;20044;-84
2022/12/14 06:38:54;;;;;;;30.83;16.60;;;-5.70;99.90;;;;;;4917845;29;20063;-84
2022/12/14 06:41:21;;;;;;;31.08;17.42;;;-5.50;99.90;;;;;;4918320;29;20052;-83
2022/12/14 06:43:46;;;;;;;31.90;17.67;;;-5.90;99.90;;;;;;4897079;29;20047;-83
2022/12/14 06:46:14;;;;;;;30.60;16.55;;;-5.90;99.90;;;;;;4902336;29;20574;-83
2022/12/14 06:48:42;;;;;;;30.35;17.17;;;-5.90;99.90;;;;;;4903506;29;20526;-83
2022/12/14 06:51:08;;;;;;;32.60;17.13;;;-5.50;99.90;;;;;;4904795;29;20103;-84
2022/12/14 06:53:35;;;;;;;29.70;17.30;;;-5.90;99.90;;;;;;4932913;29;20040;-82
2022/12/14 06:56:09;;;;;;;32.47;17.90;;;-6.00;99.90;;;;;;4901048;29;20107;-81
2022/12/14 06:58:35;;;;;;;33.38;18.38;;;-6.00;99.90;;;;;;4904559;29;20040;-83
2022/12/14 07:01:06;;;;;;;36.25;18.90;;;-6.00;99.90;;;;;;4920349;29;20051;-83
2022/12/14 07:03:32;;;;;;;32.25;19.08;;;-6.10;99.90;;;;;;4904712;29;20036;-83
2022/12/14 07:05:59;;;;;;;35.38;19.20;;;-6.00;99.90;;;;;;4924697;29;20448;-83
2022/12/14 07:08:25;;;;;;;32.08;18.88;;;-6.10;99.90;;;;;;4922914;29;20040;-82
2022/12/14 07:10:51;;;;;;;36.55;19.38;;;-6.00;99.90;;;;;;4908373;29;20043;-83
2022/12/14 07:13:17;;;;;;;31.23;18.42;;;-6.10;99.90;;;;;;4920582;29;20040;-83
2022/12/14 07:15:43;;;;;;;37.92;19.08;;;-6.30;99.90;;;;;;4921964;29;20044;-83
2022/12/14 07:18:09;;;;;;;31.92;17.48;;;-6.10;99.90;;;;;;4936562;29;20112;-83
2022/12/14 07:20:35;;;;;;;30.67;17.17;;;-6.00;99.90;;;;;;4906556;29;20068;-83
2022/12/14 07:23:00;;;;;;;29.25;16.30;;;-6.10;99.90;;;;;;4907964;29;20060;-83
2022/12/14 07:25:26;;;;;;;25.88;15.52;;;-6.10;99.90;;;;;;4907551;29;20048;-83
2022/12/14 07:27:51;;;;;;;27.38;15.82;;;-6.20;99.90;;;;;;4905460;29;20119;-82
2022/12/14 07:30:17;;;;;;;28.58;15.05;;;-6.20;99.90;;;;;;4906362;29;20044;-81
2022/12/14 07:32:43;;;;;;;30.85;16.50;;;-6.20;99.90;;;;;;4910121;29;20047;-82
2022/12/14 07:35:40;;;;;;;30.33;16.77;;;-6.40;99.90;;;;;;4921622;29;20051;-82
2022/12/14 07:38:40;;;;;;;32.20;15.35;;;-6.20;99.90;;;;;;4922451;29;20048;-82
2022/12/14 07:41:11;;;;;;;32.15;16.50;;;-6.40;99.90;;;;;;4920535;29;20542;-82
2022/12/14 07:43:38;;;;;;;26.75;16.33;;;-6.40;99.90;;;;;;4926209;29;20040;-81
2022/12/14 07:46:06;;;;;;;31.33;17.27;;;-6.40;99.90;;;;;;4925881;29;20040;-82
2022/12/14 07:48:32;;;;;;;32.63;17.30;;;-6.40;99.90;;;;;;4909596;29;20072;-82
2022/12/14 07:51:04;;;;;;;33.33;17.73;;;-6.50;99.90;;;;;;4925467;29;20051;-83
2022/12/14 07:53:30;;;;;;;33.13;17.23;;;-6.40;99.90;;;;;;4909327;29;20055;-83
2022/12/14 07:56:00;;;;;;;32.30;18.52;;;-6.40;99.90;;;;;;4905000;29;20126;-83
2022/12/14 07:58:26;;;;;;;28.77;16.40;;;-6.40;99.90;;;;;;4935440;29;20040;-82
2022/12/14 08:00:51;;;;;;;29.63;16.70;;;-6.10;99.90;;;;;;4910880;29;20044;-82
2022/12/14 08:03:17;;;;;;;31.58;16.70;;;-6.50;99.90;;;;;;4922011;29;20032;-82
2022/12/14 08:13:52;;;;;;;33.80;17.50;;;-6.40;99.90;;;;;;4840162;29;20051;-83
2022/12/14 08:31:33;;;;;;;31.77;18.00;;;-7.50;99.90;;;;;;4885131;29;20077;-83
2022/12/14 08:33:59;;;;;;;34.30;18.98;;;-6.40;99.90;;;;;;4865797;29;20044;-81
2022/12/14 08:36:28;;;;;;;39.38;19.60;;;-6.30;99.90;;;;;;4906130;29;20040;-82
2022/12/14 08:38:59;;;;;;;33.28;19.13;;;-6.00;99.90;;;;;;4898816;29;20122;-82
2022/12/14 08:41:25;;;;;;;32.70;19.42;;;-6.20;99.90;;;;;;4906812;29;20084;-83
2022/12/14 08:43:56;;;;;;;31.98;18.48;;;-6.10;99.90;;;;;;4934097;29;20040;-83
2022/12/14 08:46:22;;;;;;;36.00;20.23;;;-6.10;99.90;;;;;;4910506;29;20040;-83
2022/12/14 08:48:55;;;;;;;33.30;17.58;;;-5.90;99.90;;;;;;4906383;29;20051;-83
2022/12/14 08:51:22;;;;;;;31.98;18.50;;;-6.00;99.90;;;;;;4938166;29;20051;-83
2022/12/14 08:53:48;;;;;;;33.45;18.38;;;-5.90;99.90;;;;;;4903545;29;20116;-83
2022/12/14 08:56:39;;;;;;;32.85;18.90;;;-5.90;99.90;;;;;;4918958;29;20048;-83
2022/12/14 08:59:04;;;;;;;32.85;19.95;;;-5.70;99.90;;;;;;4916911;29;20043;-83
2022/12/14 09:01:30;;;;;;;33.47;19.10;;;-5.30;99.90;;;;;;4905605;29;20067;-83
2022/12/14 09:04:01;;;;;;;36.38;18.00;;;-4.40;99.90;;;;;;4918348;29;20087;-83
2022/12/14 09:06:27;;;;;;;34.03;19.08;;;-5.50;99.90;;;;;;4905141;29;20036;-83
2022/12/14 09:08:54;;;;;;;33.35;18.00;;;-5.50;99.90;;;;;;4904389;29;20059;-83
2022/12/14 09:11:20;;;;;;;33.97;17.50;;;-5.40;99.90;;;;;;4902938;29;20055;-84
2022/12/14 09:13:46;;;;;;;33.17;18.35;;;-5.40;99.90;;;;;;4903885;29;20044;-83
2022/12/14 09:16:22;;;;;;;35.75;19.48;;;-4.40;99.90;;;;;;4920958;29;20055;-83
2022/12/14 09:18:48;;;;;;;29.52;17.63;;;-5.20;99.90;;;;;;4919834;29;20044;-83
2022/12/14 09:21:14;;;;;;;32.70;18.88;;;-5.50;99.90;;;;;;4905075;29;20040;-83
2022/12/14 09:23:40;;;;;;;33.50;17.90;;;-5.10;99.90;;;;;;4920101;29;20077;-83
2022/12/14 09:26:17;;;;;;;31.38;18.45;;;-5.10;99.90;;;;;;4918429;29;20044;-83
2022/12/14 09:28:48;;;;;;;29.75;17.75;;;-5.00;99.90;;;;;;4901007;29;20056;-83
2022/12/14 09:31:15;;;;;;;32.67;17.20;;;-5.00;99.90;;;;;;4902973;29;20050;-83
2022/12/14 09:33:41;;;;;;;31.95;17.45;;;-4.90;99.90;;;;;;4907372;29;20067;-83
2022/12/14 09:36:13;;;;;;;29.40;17.98;;;-4.80;99.90;;;;;;4900083;29;20044;-83
2022/12/14 09:38:39;;;;;;;26.92;16.55;;;-4.70;99.90;;;;;;4905734;29;20059;-83
2022/12/14 09:41:43;;;;;;;31.60;17.38;;;-4.60;99.90;;;;;;4921991;29;20051;-83
2022/12/14 09:44:43;;;;;;;29.95;16.83;;;-4.60;99.90;;;;;;4864639;29;20071;-83
2022/12/14 09:47:33;;;;;;;32.05;18.10;;;-4.50;99.90;;;;;;4921826;29;20082;-84
2022/12/14 09:50:06;;;;;;;30.63;17.60;;;-4.80;99.90;;;;;;4902334;29;20051;-83
2022/12/14 09:52:34;;;;;;;28.05;16.58;;;-4.40;99.90;;;;;;4900508;29;20073;-83
2022/12/14 09:55:04;;;;;;;35.40;18.80;;;-4.40;99.90;;;;;;4900382;29;20630;-84
2022/12/14 09:57:44;;;;;;;31.92;18.30;;;-4.30;99.90;;;;;;4920465;29;20059;-83
2022/12/14 10:00:39;;;;;;;28.23;17.15;;;-4.10;99.90;;;;;;4909761;29;20079;-83
2022/12/14 10:03:47;;;;;;;33.65;18.95;;;-4.20;99.90;;;;;;4920257;29;20070;-83
2022/12/14 10:06:28;;;;;;;27.40;17.15;;;-4.10;99.90;;;;;;4917852;29;20040;-83
2022/12/14 10:09:12;;;;;;;30.02;18.25;;;-4.10;99.90;;;;;;4914631;29;20105;-83
2022/12/14 10:12:18;;;;;;;29.98;17.65;;;-4.00;99.90;;;;;;4920490;29;20056;-83
2022/12/14 10:14:56;;;;;;;28.98;16.85;;;-3.90;99.90;;;;;;4873598;29;20127;-83
2022/12/14 10:32:29;;;;;;;25.13;16.13;;;-3.00;99.90;;;;;;4830261;29;20582;-83
2022/12/14 10:34:55;;;;;;;25.30;15.18;;;-2.50;99.90;;;;;;4829670;29;20907;-84
2022/12/14 10:37:36;;;;;;;24.38;15.13;;;-2.90;99.90;;;;;;4843798;29;20081;-84
2022/12/14 10:40:12;;;;;;;25.20;15.57;;;-2.70;99.90;;;;;;4932517;29;20036;-84
2022/12/14 10:42:56;;;;;;;24.02;16.02;;;-2.70;99.90;;;;;;4899769;29;20036;-84
2022/12/14 10:45:45;;;;;;;25.63;15.75;;;-2.80;99.90;;;;;;4916050;29;20051;-84
2022/12/14 10:48:36;;;;;;;27.65;15.65;;;-2.70;99.90;;;;;;4935327;29;20052;-84
2022/12/14 10:51:41;;;;;;;22.65;14.65;;;-2.50;99.90;;;;;;4917930;29;20044;-83
2022/12/14 10:54:37;;;;;;;27.02;15.77;;;-2.50;99.90;;;;;;4902105;29;20052;-84
2022/12/14 10:57:05;;;;;;;21.75;14.35;;;-2.40;99.90;;;;;;4920966;29;20103;-83
2022/12/14 10:59:35;;;;;;;21.73;14.93;;;-2.40;99.90;;;;;;4905439;29;20060;-83
2022/12/14 11:02:15;;;;;;;22.58;13.75;;;-2.30;99.90;;;;;;4918625;29;20055;-83
2022/12/14 11:05:00;;;;;;;24.45;15.82;;;-2.30;99.90;;;;;;4917646;29;20044;-83
2022/12/14 11:07:32;;;;;;;22.77;14.15;;;-2.20;99.90;;;;;;4902362;29;20039;-83
2022/12/14 11:10:18;;;;;;;23.90;15.60;;;-2.20;99.90;;;;;;4896689;29;20059;-83
2022/12/14 11:13:16;;;;;;;22.30;14.82;;;-2.10;99.90;;;;;;4898345;29;21258;-83
2022/12/14 11:15:51;;;;;;;22.40;14.73;;;-2.00;99.90;;;;;;4916751;29;20036;-83
2022/12/14 11:18:35;;;;;;;25.60;14.27;;;-1.70;99.90;;;;;;4912923;29;20514;-82
2022/12/14 11:21:14;;;;;;;25.83;15.20;;;-1.50;99.90;;;;;;4926307;29;20370;-85
2022/12/14 11:23:44;;;;;;;20.50;14.13;;;-1.10;99.90;;;;;;4894140;29;20154;-85
2022/12/14 11:26:14;;;;;;;20.08;15.25;;;-0.90;99.90;;;;;;4895022;29;20065;-84
2022/12/14 11:28:52;;;;;;;21.38;14.32;;;-0.50;99.90;;;;;;4890520;29;20107;-84
2022/12/14 11:31:31;;;;;;;20.88;14.60;;;-0.10;99.90;;;;;;4912125;29;20051;-84
2022/12/14 11:33:58;;;;;;;23.25;15.05;;;0.20;99.90;;;;;;4915265;29;20044;-85
2022/12/14 11:36:45;;;;;;;22.88;14.25;;;0.50;99.90;;;;;;4901048;29;20411;-85
2022/12/14 11:39:23;;;;;;;16.88;14.38;;;0.80;99.90;;;;;;4915624;29;20043;-84
2022/12/14 11:41:56;;;;;;;17.90;13.77;;;0.60;99.90;;;;;;4898799;29;20082;-84
2022/12/14 11:44:28;;;;;;;18.83;14.07;;;0.80;99.90;;;;;;4898168;29;20044;-85
2022/12/14 11:47:12;;;;;;;17.13;13.27;;;1.00;99.90;;;;;;4892287;29;20078;-86
2022/12/14 11:49:37;;;;;;;16.58;12.98;;;1.30;99.90;;;;;;4911100;29;20040;-84
2022/12/14 11:52:22;;;;;;;17.27;13.30;;;1.10;99.90;;;;;;4907769;29;20583;-84
2022/12/14 11:54:50;;;;;;;21.65;13.30;;;1.10;99.90;;;;;;4917906;29;20084;-84
2022/12/14 11:57:28;;;;;;;18.27;13.85;;;1.10;99.90;;;;;;4916612;29;20044;-84
2022/12/14 12:00:05;;;;;;;15.35;12.15;;;1.30;99.90;;;;;;4925678;29;20852;-84
2022/12/14 12:02:39;;;;;;;18.92;13.88;;;1.40;99.90;;;;;;4893927;29;20039;-85
2022/12/14 12:05:22;;;;;;;18.50;12.00;;;1.20;99.90;;;;;;4910873;29;20051;-84
2022/12/14 12:07:48;;;;;;;15.07;11.32;;;1.20;99.90;;;;;;4911763;29;20063;-84
2022/12/14 12:10:23;;;;;;;16.88;13.20;;;1.10;99.90;;;;;;4906009;29;20125;-84
2022/12/14 12:13:04;;;;;;;15.48;11.73;;;1.20;99.90;;;;;;4926908;29;20047;-84
2022/12/14 12:15:39;;;;;;;19.92;12.20;;;0.80;99.90;;;;;;4911361;29;20471;-84
2022/12/14 12:18:19;;;;;;;18.83;12.82;;;0.90;99.90;;;;;;4893084;29;21796;-84
2022/12/14 12:21:06;;;;;;;16.65;12.57;;;0.90;99.90;;;;;;4913916;29;20131;-84
2022/12/14 12:23:47;;;;;;;23.30;13.35;;;1.10;99.90;;;;;;4899993;29;20040;-84
2022/12/14 12:26:35;;;;;;;19.77;13.40;;;1.10;99.90;;;;;;4911316;29;20058;-84
2022/12/14 12:29:28;;;;;;;22.60;13.80;;;1.20;99.90;;;;;;4905456;29;20051;-84
2022/12/14 12:32:29;;;;;;;21.58;14.40;;;1.20;99.90;;;;;;4895562;29;20075;-81
2022/12/14 12:35:15;;;;;;;21.80;14.15;;;1.20;99.90;;;;;;4898684;29;20095;-84
2022/12/14 12:37:44;;;;;;;20.02;13.30;;;1.20;99.90;;;;;;4914587;29;20888;-83
2022/12/14 12:40:26;;;;;;;18.17;14.32;;;1.10;99.90;;;;;;4914940;29;20094;-84
2022/12/14 12:43:27;;;;;;;19.83;13.63;;;1.00;99.90;;;;;;4898183;29;20056;-83
2022/12/14 12:46:04;;;;;;;21.65;14.90;;;0.80;99.90;;;;;;4895974;29;20507;-84
2022/12/14 12:48:42;;;;;;;19.38;14.68;;;0.80;99.90;;;;;;4893058;29;20060;-84
2022/12/14 12:51:31;;;;;;;21.75;15.25;;;0.70;99.90;;;;;;4896230;29;20516;-84
2022/12/14 12:54:09;;;;;;;21.63;14.48;;;0.70;99.90;;;;;;4908659;29;20043;-83
2022/12/14 12:56:44;;;;;;;22.10;15.48;;;0.60;99.90;;;;;;4894147;29;20546;-84
2022/12/14 12:59:20;;;;;;;20.80;14.88;;;0.40;99.90;;;;;;4908467;29;20760;-84
2022/12/14 13:01:48;;;;;;;;;;;0.30;99.90;;;;;;4890090;29;20044;-84
2022/12/14 13:04:35;;;;;;;20.73;15.60;;;0.80;99.90;;;;;;4891019;29;19919;-85
2022/12/14 13:07:45;;;;;;;22.95;15.95;;;0.20;99.90;;;;;;4894517;29;20043;-85
2022/12/14 13:10:29;;;;;;;20.48;14.05;;;0.10;99.90;;;;;;4926607;29;20043;-83
2022/12/14 13:13:09;;;;;;;18.00;13.73;;;0.10;99.90;;;;;;4912948;29;20090;-84
2022/12/14 13:16:05;;;;;;;17.50;13.93;;;0.10;99.90;;;;;;4908751;29;20051;-84
2022/12/14 13:18:44;;;;;;;19.15;14.23;;;0.10;99.90;;;;;;4910167;29;20045;-83
2022/12/14 13:21:33;;;;;;;21.38;15.65;;;0.10;99.90;;;;;;4895562;29;20083;-84
2022/12/14 13:23:59;;;;;;;20.77;14.13;;;0.10;99.90;;;;;;4901071;29;20119;-84
2022/12/14 13:26:38;;;;;;;20.08;13.25;;;0.20;99.90;;;;;;4897129;29;20131;-84
2022/12/14 13:29:28;;;;;;;18.98;13.50;;;0.20;99.90;;;;;;4913010;29;20176;-83
2022/12/14 13:32:18;;;;;;;16.58;12.25;;;0.10;99.90;;;;;;4909514;29;20047;-83
2022/12/14 13:35:00;;;;;;;16.40;11.02;;;0.00;99.90;;;;;;4893326;29;20491;-84
2022/12/14 13:37:56;;;;;;;19.98;13.85;;;-0.10;99.90;;;;;;4900407;29;20040;-84
2022/12/14 13:41:11;;;;;;;17.08;11.05;;;-0.10;99.90;;;;;;4912839;29;20048;-84
2022/12/14 13:43:51;;;;;;;20.80;12.57;;;-0.10;99.90;;;;;;4916288;29;20048;-85
2022/12/14 13:46:23;;;;;;;17.98;12.32;;;-0.10;99.90;;;;;;4913795;29;20123;-84
2022/12/14 13:48:59;;;;;;;19.50;12.73;;;-0.10;99.90;;;;;;4878461;29;20772;-84
2022/12/14 13:51:59;;;;;;;20.65;11.18;;;-0.10;99.90;;;;;;4888188;29;20055;-82
2022/12/14 13:54:52;;;;;;;17.33;11.55;;;-0.20;99.90;;;;;;4911155;29;20136;-84
2022/12/14 13:57:26;;;;;;;17.02;11.13;;;-0.30;99.90;;;;;;4908733;29;21489;-84
2022/12/14 14:00:12;;;;;;;19.52;11.57;;;-0.20;99.90;;;;;;4911889;29;20078;-84
2022/12/14 14:02:57;;;;;;;19.25;11.85;;;-0.30;99.90;;;;;;4890058;29;20415;-85
2022/12/14 14:05:46;;;;;;;17.25;10.93;;;-0.30;99.90;;;;;;4926848;29;20391;-85
2022/12/14 14:08:56;;;;;;;17.65;11.23;;;-0.30;99.90;;;;;;4890009;29;21918;-84
2022/12/14 14:11:36;;;;;;;17.92;11.20;;;-0.20;99.90;;;;;;4822638;29;20050;-84
2022/12/14 14:14:17;;;;;;;17.73;12.02;;;-0.40;99.90;;;;;;4908482;29;20186;-84
2022/12/14 14:16:59;;;;;;;18.33;11.75;;;-0.40;99.90;;;;;;4896760;29;20048;-85
2022/12/14 14:19:34;;;;;;;18.55;11.30;;;-0.50;99.90;;;;;;4909915;29;20032;-84
2022/12/14 14:22:21;;;;;;;18.20;12.20;;;-0.50;99.90;;;;;;4889249;29;20075;-83
2022/12/14 14:24:55;;;;;;;16.15;11.10;;;-0.60;99.90;;;;;;4909763;29;20052;-84
2022/12/14 14:27:40;;;;;;;20.45;11.85;;;-0.10;99.90;;;;;;4908090;29;20047;-84
2022/12/14 14:30:30;;;;;;;16.95;11.18;;;-0.70;99.90;;;;;;4894258;29;20566;-84
2022/12/14 14:32:59;;;;;;;19.67;11.25;;;-0.70;99.90;;;;;;4905260;29;20178;-83
2022/12/14 14:35:45;;;;;;;22.17;12.02;;;-0.80;99.90;;;;;;4892295;29;20036;-84
2022/12/14 14:38:43;;;;;;;15.80;10.43;;;-0.80;99.90;;;;;;4905967;29;20095;-84
2022/12/14 14:41:32;;;;;;;19.50;11.48;;;-0.80;99.90;;;;;;4869209;29;20047;-84
2022/12/14 14:44:07;;;;;;;17.30;12.07;;;-0.90;99.90;;;;;;4888868;29;20039;-84
2022/12/14 14:46:38;;;;;;;19.98;13.43;;;-1.00;99.90;;;;;;4905395;29;20051;-84
2022/12/14 14:49:21;;;;;;;18.35;12.57;;;-1.00;99.90;;;;;;4905930;29;20052;-83
2022/12/14 14:51:47;;;;;;;20.35;11.38;;;-1.00;99.90;;;;;;4893299;29;20520;-83
2022/12/14 14:54:40;;;;;;;18.85;11.88;;;-1.00;99.90;;;;;;4888547;29;20135;-81
2022/12/14 14:57:55;;;;;;;21.33;12.38;;;-1.10;99.90;;;;;;4894491;29;20075;-84
2022/12/14 15:00:29;;;;;;;22.17;11.45;;;-1.10;99.90;;;;;;4894701;29;20766;-83
2022/12/14 15:03:18;;;;;;;17.25;11.13;;;-1.10;99.90;;;;;;4911067;29;20064;-83
2022/12/14 15:06:20;;;;;;;;;;;;;;;;;;;;;
2022/12/14 15:08:55;;;;;;;;;;;-1.10;99.90;;;;;;4911649;29;20056;-83
2022/12/14 15:12:18;;;;;;;17.17;11.02;;;-1.40;99.90;;;;;;4897785;29;19927;-82
2022/12/14 15:14:53;;;;;;;21.45;11.27;;;-1.50;99.90;;;;;;4902222;29;20059;-83
2022/12/14 15:17:21;;;;;;;20.50;12.52;;;-1.50;99.90;;;;;;4915148;29;20048;-83
2022/12/14 15:20:21;;;;;;;15.85;10.30;;;-1.50;99.90;;;;;;4893478;29;20164;-83
2022/12/14 15:22:48;;;;;;;16.95;10.60;;;-1.70;99.90;;;;;;4927189;29;20044;-83
2022/12/14 15:25:32;;;;;;;23.70;10.85;;;-1.80;99.90;;;;;;4895938;29;20062;-83
2022/12/14 15:28:06;;;;;;;17.50;10.52;;;-1.60;99.90;;;;;;4893525;29;20088;-83
2022/12/14 15:30:33;;;;;;;16.52;10.27;;;-1.80;99.90;;;;;;4895771;29;20051;-83